createdAt,value
2022-08-23T00:00:29.671Z,2.50
2022-08-23T00:03:15.494Z,2.20
2022-08-23T00:06:01.092Z,1.97
2022-08-23T00:08:48.585Z,2.28
2022-08-23T00:11:37.540Z,2.22
2022-08-23T00:14:29.250Z,2.15
2022-08-23T00:17:33.262Z,2.10
2022-08-23T00:20:20.401Z,2.33
2022-08-23T00:23:05.705Z,1.98
2022-08-23T00:25:51.114Z,2.35
2022-08-23T00:28:36.078Z,2.30
2022-08-23T00:31:21.661Z,2.50
2022-08-23T00:34:07.081Z,2.20
2022-08-23T00:36:52.528Z,2.08
2022-08-23T00:39:38.888Z,2.00
2022-08-23T00:42:51.860Z,2.50
2022-08-23T00:46:05.423Z,2.25
2022-08-23T00:48:51.715Z,2.60
2022-08-23T00:51:53.233Z,2.60
2022-08-23T00:54:41.246Z,2.22
2022-08-23T00:57:27.656Z,2.00
2022-08-23T01:00:13.427Z,2.30
2022-08-23T01:02:59.120Z,2.13
2022-08-23T01:05:50.337Z,2.40
2022-08-23T01:08:38.307Z,2.67
2022-08-23T01:11:38.476Z,2.80
2022-08-23T01:14:34.669Z,2.50
2022-08-23T01:17:26.983Z,2.60
2022-08-23T01:20:16.741Z,3.00
2022-08-23T01:23:39.414Z,2.60
2022-08-23T01:26:25.823Z,2.65
2022-08-23T01:29:11.468Z,3.08
2022-08-23T01:31:56.845Z,2.87
2022-08-23T01:34:45.797Z,2.90
2022-08-23T01:37:37.939Z,2.90
2022-08-23T01:40:23.273Z,2.65
2022-08-23T01:43:09.127Z,2.90
2022-08-23T01:45:55.650Z,2.90
2022-08-23T01:48:42.364Z,3.13
2022-08-23T01:51:27.249Z,2.53
2022-08-23T01:54:12.809Z,2.80
2022-08-23T01:56:58.911Z,2.58
2022-08-23T01:59:44.251Z,3.00
2022-08-23T02:02:29.427Z,2.25
2022-08-23T02:05:18.809Z,2.63
2022-08-23T02:08:25.770Z,2.50
2022-08-23T02:11:16.464Z,2.85
2022-08-23T02:14:09.617Z,2.30
2022-08-23T02:17:10.243Z,2.40
2022-08-23T02:19:55.865Z,2.70
2022-08-23T02:22:41.914Z,2.55
2022-08-23T02:25:27.349Z,2.55
2022-08-23T02:28:12.663Z,2.50
2022-08-23T02:30:57.904Z,2.53
2022-08-23T02:33:43.651Z,2.30
2022-08-23T02:36:30.002Z,2.10
2022-08-23T02:39:17.627Z,2.30
2022-08-23T02:42:03.097Z,2.30
2022-08-23T02:44:51.955Z,2.80
2022-08-23T02:47:37.888Z,2.63
2022-08-23T02:50:31.232Z,2.78
2022-08-23T02:53:17.267Z,2.60
2022-08-23T02:56:04.026Z,2.70
2022-08-23T02:58:54.541Z,2.72
2022-08-23T03:01:41.243Z,2.83
2022-08-23T03:04:38.296Z,2.70
2022-08-23T03:07:23.568Z,2.55
2022-08-23T03:10:10.327Z,2.70
2022-08-23T03:12:59.226Z,2.40
2022-08-23T03:15:45.143Z,2.53
2022-08-23T03:18:30.307Z,2.45
2022-08-23T03:21:20.413Z,3.15
2022-08-23T03:24:10.206Z,2.67
2022-08-23T03:26:57.091Z,2.55
2022-08-23T03:29:42.680Z,2.53
2022-08-23T03:32:28.095Z,2.70
2022-08-23T03:35:15.299Z,2.63
2022-08-23T03:38:00.900Z,2.40
2022-08-23T03:40:46.028Z,2.75
2022-08-23T03:43:31.305Z,2.80
2022-08-23T03:46:23.641Z,2.45
2022-08-23T03:49:12.965Z,2.50
2022-08-23T03:52:11.312Z,3.00
2022-08-23T03:54:56.785Z,2.80
2022-08-23T03:57:42.699Z,2.83
2022-08-23T04:00:28.478Z,2.83
2022-08-23T04:03:13.963Z,2.75
2022-08-23T04:06:16.113Z,2.77
2022-08-23T04:09:01.485Z,2.90
2022-08-23T04:11:46.717Z,3.28
2022-08-23T04:14:31.898Z,2.70
2022-08-23T04:17:18.405Z,3.20
2022-08-23T04:20:05.354Z,3.37
2022-08-23T04:22:55.191Z,2.80
2022-08-23T04:25:45.571Z,2.85
2022-08-23T04:28:31.243Z,3.10
2022-08-23T04:31:19.780Z,2.75
2022-08-23T04:34:08.348Z,2.60
2022-08-23T04:36:55.306Z,2.92
2022-08-23T04:39:59.515Z,2.80
2022-08-23T04:42:50.623Z,3.28
2022-08-23T04:45:39.101Z,3.28
2022-08-23T04:48:26.785Z,3.23
2022-08-23T04:51:12.827Z,2.78
2022-08-23T04:53:59.198Z,2.88
2022-08-23T04:56:51.671Z,2.78
2022-08-23T04:59:38.630Z,2.67
2022-08-23T05:02:23.919Z,3.30
2022-08-23T05:05:11.056Z,2.70
2022-08-23T05:08:01.486Z,2.80
2022-08-23T05:10:47.265Z,2.95
2022-08-23T05:13:35.624Z,2.95
2022-08-23T05:16:22.763Z,3.10
2022-08-23T05:19:15.671Z,2.90
2022-08-23T05:22:02.744Z,3.22
2022-08-23T05:25:09.913Z,3.08
2022-08-23T05:27:58.198Z,2.88
2022-08-23T05:30:55.159Z,2.93
2022-08-23T05:33:42.772Z,2.58
2022-08-23T05:36:28.658Z,2.70
2022-08-23T05:39:14.933Z,3.17
2022-08-23T05:42:12.480Z,3.10
2022-08-23T05:44:57.783Z,2.63
2022-08-23T05:47:43.854Z,3.10
2022-08-23T05:50:55.974Z,2.97
2022-08-23T05:53:43.111Z,2.83
2022-08-23T05:56:32.048Z,3.03
2022-08-23T05:59:19.338Z,3.03
2022-08-23T06:02:06.042Z,3.08
2022-08-23T06:04:55.519Z,3.13
2022-08-23T06:07:42.555Z,2.90
2022-08-23T06:10:27.879Z,3.25
2022-08-23T06:13:19.332Z,2.80
2022-08-23T06:16:15.118Z,2.70
2022-08-23T06:19:02.508Z,2.75
2022-08-23T06:22:23.373Z,2.70
2022-08-23T06:25:09.807Z,2.97
2022-08-23T06:28:04.877Z,3.07
2022-08-23T06:30:52.422Z,2.92
2022-08-23T06:33:47.742Z,2.80
2022-08-23T06:37:04.767Z,2.90
2022-08-23T06:40:13.648Z,2.63
2022-08-23T06:43:09.165Z,2.50
2022-08-23T06:46:18.022Z,2.45
2022-08-23T06:49:05.554Z,2.45
2022-08-23T06:51:53.746Z,2.50
2022-08-23T06:54:48.532Z,2.63
2022-08-23T06:58:09.261Z,2.70
2022-08-23T07:01:44.617Z,2.38
2022-08-23T07:04:53.996Z,2.63
2022-08-23T07:07:58.646Z,2.78
2022-08-23T07:10:44.000Z,2.60
2022-08-23T07:13:29.528Z,2.53
2022-08-23T07:16:18.141Z,2.95
2022-08-23T07:19:04.355Z,2.60
2022-08-23T07:21:49.616Z,2.70
2022-08-23T07:24:35.385Z,2.53
2022-08-23T07:27:21.425Z,2.40
2022-08-23T07:30:16.746Z,2.50
2022-08-23T07:33:03.200Z,2.58
2022-08-23T07:35:55.569Z,2.40
2022-08-23T07:38:41.252Z,2.88
2022-08-23T07:41:32.846Z,2.23
2022-08-23T07:44:22.462Z,2.28
2022-08-23T07:47:12.756Z,2.60
2022-08-23T07:49:57.857Z,2.33
2022-08-23T07:52:44.516Z,2.30
2022-08-23T07:55:29.881Z,2.07
2022-08-23T07:58:29.126Z,2.20
2022-08-23T08:01:30.176Z,2.30
2022-08-23T08:04:15.883Z,2.45
2022-08-23T08:07:20.965Z,2.50
2022-08-23T08:10:13.916Z,2.33
2022-08-23T08:12:59.099Z,2.00
2022-08-23T08:15:44.295Z,2.47
2022-08-23T08:18:32.469Z,2.50
2022-08-23T08:21:51.321Z,2.50
2022-08-23T08:25:06.410Z,2.20
2022-08-23T08:27:52.033Z,2.20
2022-08-23T08:30:37.124Z,2.42
2022-08-23T08:33:23.065Z,2.13
2022-08-23T08:36:39.447Z,2.50
2022-08-23T08:39:31.512Z,2.10
2022-08-23T08:42:25.349Z,2.20
2022-08-23T08:45:15.581Z,2.25
2022-08-23T08:48:14.136Z,2.40
2022-08-23T08:51:16.155Z,2.10
2022-08-23T08:54:06.127Z,2.17
2022-08-23T08:56:59.413Z,2.20
2022-08-23T09:00:08.849Z,2.03
2022-08-23T09:02:59.156Z,2.33
2022-08-23T09:06:09.909Z,2.22
2022-08-23T09:09:02.155Z,2.27
2022-08-23T09:12:06.066Z,2.35
2022-08-23T09:15:29.759Z,2.40
2022-08-23T09:18:16.647Z,2.30
2022-08-23T09:21:06.707Z,2.08
2022-08-23T09:24:00.166Z,2.10
2022-08-23T09:26:57.576Z,2.13
2022-08-23T09:29:54.460Z,2.38
2022-08-23T09:32:44.000Z,2.00
2022-08-23T09:35:31.791Z,2.10
2022-08-23T09:38:25.053Z,2.20
2022-08-23T09:41:20.409Z,2.20
2022-08-23T09:44:13.766Z,2.10
2022-08-23T09:47:08.355Z,1.90
2022-08-23T09:49:56.247Z,2.10
2022-08-23T09:52:41.579Z,1.93
2022-08-23T09:55:34.075Z,2.35
2022-08-23T09:58:38.381Z,2.10
2022-08-23T10:01:27.551Z,2.05
2022-08-23T10:04:35.490Z,2.08
2022-08-23T10:07:23.058Z,2.40
2022-08-23T10:10:23.821Z,1.95
2022-08-23T10:13:11.524Z,1.90
2022-08-23T10:16:01.286Z,2.50
2022-08-23T10:19:03.189Z,2.17
2022-08-23T10:22:08.608Z,2.10
2022-08-23T10:25:07.231Z,2.10
2022-08-23T10:28:19.935Z,2.20
2022-08-23T10:31:17.336Z,2.05
2022-08-23T10:34:23.097Z,2.10
2022-08-23T10:37:30.536Z,1.90
2022-08-23T10:40:34.913Z,1.90
2022-08-23T10:43:38.029Z,2.00
2022-08-23T10:46:24.056Z,2.00
2022-08-23T10:49:13.020Z,2.10
2022-08-23T10:51:59.230Z,1.90
2022-08-23T10:55:05.744Z,2.20
2022-08-23T10:57:53.816Z,1.80
2022-08-23T11:00:40.141Z,1.95
2022-08-23T11:03:31.747Z,1.98
2022-08-23T11:06:37.391Z,2.03
2022-08-23T11:09:26.228Z,1.80
2022-08-23T11:12:22.707Z,2.00
2022-08-23T11:15:12.387Z,1.90
2022-08-23T11:18:05.061Z,1.88
2022-08-23T11:20:55.784Z,2.00
2022-08-23T11:23:59.248Z,1.77
2022-08-23T11:27:05.963Z,2.08
2022-08-23T11:29:55.462Z,2.17
2022-08-23T11:32:50.557Z,2.10
2022-08-23T11:36:08.525Z,2.10
2022-08-23T11:38:55.628Z,2.10
2022-08-23T11:41:55.997Z,2.08
2022-08-23T11:44:48.315Z,2.20
2022-08-23T11:47:44.579Z,2.05
2022-08-23T11:50:38.967Z,1.90
2022-08-23T11:53:34.381Z,1.90
2022-08-23T11:56:36.512Z,1.88
2022-08-23T11:59:21.467Z,2.10
2022-08-23T12:02:40.638Z,1.98
2022-08-23T12:06:01.088Z,1.93
2022-08-23T12:09:01.759Z,2.08
2022-08-23T12:11:56.201Z,2.30
2022-08-23T12:14:44.145Z,1.80
2022-08-23T12:17:29.737Z,1.90
2022-08-23T12:20:28.821Z,1.90
2022-08-23T12:23:17.825Z,2.05
2022-08-23T12:26:13.649Z,2.40
2022-08-23T12:29:18.740Z,1.83
2022-08-23T12:32:21.598Z,1.92
2022-08-23T12:35:46.811Z,1.83
2022-08-23T12:38:56.483Z,1.80
2022-08-23T12:41:53.959Z,2.35
2022-08-23T12:44:39.086Z,1.70
2022-08-23T12:47:24.412Z,1.90
2022-08-23T12:50:34.577Z,1.93
2022-08-23T12:53:36.061Z,1.75
2022-08-23T12:56:32.123Z,1.80
2022-08-23T12:59:33.713Z,1.90
2022-08-23T13:02:25.856Z,1.70
2022-08-23T13:05:22.345Z,1.87
2022-08-23T13:08:11.643Z,1.70
2022-08-23T13:10:56.946Z,1.98
2022-08-23T13:13:44.105Z,1.88
2022-08-23T13:16:44.547Z,1.98
2022-08-23T13:19:32.085Z,1.80
2022-08-23T13:22:24.768Z,1.80
2022-08-23T13:25:32.140Z,1.60
2022-08-23T13:28:36.132Z,1.80
2022-08-23T13:31:21.507Z,1.70
2022-08-23T13:34:06.681Z,1.70
2022-08-23T13:36:51.771Z,1.70
2022-08-23T13:39:37.582Z,1.83
2022-08-23T13:42:52.714Z,1.58
2022-08-23T13:45:51.959Z,1.67
2022-08-23T13:48:46.437Z,1.50
2022-08-23T13:51:36.975Z,1.70
2022-08-23T13:54:22.779Z,1.95
2022-08-23T13:57:12.979Z,1.67
2022-08-23T13:59:59.018Z,1.50
2022-08-23T14:02:48.842Z,1.60
2022-08-23T14:05:34.519Z,1.60
2022-08-23T14:08:20.409Z,1.90
2022-08-23T14:11:05.439Z,1.50
2022-08-23T14:13:51.028Z,1.80
2022-08-23T14:16:40.902Z,1.60
2022-08-23T14:22:32.186Z,1.65
2022-08-23T14:25:17.273Z,1.60
2022-08-23T14:28:02.937Z,1.70
2022-08-23T14:30:48.082Z,1.60
2022-08-23T14:33:33.458Z,1.40
2022-08-23T14:36:18.919Z,1.50
2022-08-23T14:39:06.128Z,1.50
2022-08-23T14:41:52.418Z,1.42
2022-08-23T14:44:37.735Z,1.50
2022-08-23T14:47:22.695Z,1.73
2022-08-23T14:50:10.905Z,1.50
2022-08-23T14:52:55.955Z,1.45
2022-08-23T14:55:41.757Z,1.63
2022-08-23T14:58:27.182Z,1.47
2022-08-23T15:01:13.252Z,1.45
2022-08-23T15:04:01.388Z,1.67
2022-08-23T15:07:14.097Z,1.35
2022-08-23T15:09:55.833Z,1.30
2022-08-23T15:12:57.364Z,1.50
2022-08-23T15:15:46.612Z,1.40
2022-08-23T15:18:37.342Z,1.60
2022-08-23T15:21:23.078Z,1.40
2022-08-23T15:24:08.709Z,1.58
2022-08-23T15:26:59.513Z,1.30
2022-08-23T15:29:44.562Z,1.48
2022-08-23T15:32:29.508Z,1.30
2022-08-23T15:35:18.297Z,1.60
2022-08-23T15:38:04.006Z,1.50
2022-08-23T15:40:52.097Z,1.40
2022-08-23T15:43:39.192Z,1.52
2022-08-23T15:46:24.818Z,1.48
2022-08-23T15:49:13.901Z,1.35
2022-08-23T15:52:00.266Z,1.50
2022-08-23T15:54:46.363Z,1.40
2022-08-23T15:57:38.778Z,1.60
2022-08-23T16:00:26.148Z,1.65
2022-08-23T16:03:18.527Z,1.42
2022-08-23T16:06:06.825Z,1.63
2022-08-23T16:08:52.965Z,3.47
2022-08-23T16:11:37.989Z,4.78
2022-08-23T16:14:22.854Z,8.52
2022-08-23T16:17:08.608Z,9.52
2022-08-23T16:19:54.124Z,10.13
2022-08-23T16:22:40.047Z,10.80
2022-08-23T16:25:25.805Z,10.15
2022-08-23T16:28:10.745Z,10.50
2022-08-23T16:30:56.384Z,10.77
2022-08-23T16:33:42.049Z,10.85
2022-08-23T16:36:30.328Z,11.67
2022-08-23T16:39:16.556Z,11.18
2022-08-23T16:42:04.481Z,10.65
2022-08-23T16:44:49.598Z,11.73
2022-08-23T16:47:39.291Z,11.32
2022-08-23T16:50:25.139Z,10.60
2022-08-23T16:53:10.340Z,10.43
2022-08-23T16:55:56.052Z,10.50
2022-08-23T16:58:41.815Z,9.70
2022-08-23T17:01:27.997Z,10.35
2022-08-23T17:04:13.494Z,10.17
2022-08-23T17:06:59.573Z,10.13
2022-08-23T17:09:44.641Z,9.50
2022-08-23T17:12:31.427Z,10.27
2022-08-23T17:15:20.773Z,9.63
2022-08-23T17:18:06.824Z,9.90
2022-08-23T17:20:52.194Z,9.52
2022-08-23T17:23:40.683Z,10.15
2022-08-23T17:26:26.166Z,9.25
2022-08-23T17:29:12.247Z,9.65
2022-08-23T17:31:57.391Z,9.93
2022-08-23T17:34:42.603Z,9.45
2022-08-23T17:37:27.486Z,9.38
2022-08-23T17:40:16.678Z,9.00
2022-08-23T17:43:07.385Z,8.98
2022-08-23T17:45:52.875Z,8.67
2022-08-23T17:48:38.061Z,8.90
2022-08-23T17:51:23.263Z,9.38
2022-08-23T17:54:11.257Z,8.45
2022-08-23T17:56:56.478Z,8.13
2022-08-23T17:59:41.734Z,8.40
2022-08-23T18:02:27.275Z,7.78
2022-08-23T18:05:12.768Z,8.18
2022-08-23T18:07:58.238Z,8.55
2022-08-23T18:10:43.295Z,8.90
2022-08-23T18:13:29.290Z,8.07
2022-08-23T18:16:14.898Z,8.20
2022-08-23T18:19:01.260Z,7.88
2022-08-23T18:21:46.868Z,7.78
2022-08-23T18:27:52.646Z,7.77
2022-08-23T18:30:45.604Z,7.30
2022-08-23T18:33:46.382Z,7.85
2022-08-23T18:36:32.660Z,7.18
2022-08-23T18:39:17.666Z,7.80
2022-08-23T18:42:16.977Z,7.70
2022-08-23T18:45:03.416Z,7.50
2022-08-23T18:47:49.079Z,8.10
2022-08-23T18:50:34.310Z,8.25
2022-08-23T18:53:19.933Z,7.60
2022-08-23T18:56:05.296Z,7.57
2022-08-23T18:58:50.485Z,7.53
2022-08-23T19:01:39.035Z,7.13
2022-08-23T19:04:24.259Z,7.28
2022-08-23T19:07:10.025Z,8.27
2022-08-23T19:09:54.824Z,7.23
2022-08-23T19:12:40.277Z,7.05
2022-08-23T19:15:40.572Z,6.72
2022-08-23T19:18:25.539Z,7.20
2022-08-23T19:21:11.368Z,7.15
2022-08-23T19:23:57.429Z,7.13
2022-08-23T19:26:47.260Z,6.80
2022-08-23T19:29:33.066Z,6.65
2022-08-23T19:32:17.971Z,6.65
2022-08-23T19:35:05.911Z,6.18
2022-08-23T19:37:50.992Z,6.60
2022-08-23T19:40:37.008Z,6.50
2022-08-23T19:43:22.810Z,5.80
2022-08-23T19:46:15.788Z,5.85
2022-08-23T19:49:00.941Z,6.20
2022-08-23T19:51:46.644Z,6.17
2022-08-23T19:54:32.207Z,5.60
2022-08-23T19:57:18.375Z,6.07
2022-08-23T20:00:10.375Z,5.82
2022-08-23T20:02:55.459Z,5.85
2022-08-23T20:05:42.021Z,5.40
2022-08-23T20:08:27.965Z,5.57
2022-08-23T20:11:14.135Z,5.18
2022-08-23T20:14:00.354Z,5.05
2022-08-23T20:16:46.061Z,5.72
2022-08-23T20:19:31.680Z,5.47
2022-08-23T20:22:35.779Z,5.35
2022-08-23T20:25:20.943Z,4.68
2022-08-23T20:28:08.085Z,5.22
2022-08-23T20:30:53.173Z,4.90
2022-08-23T20:33:39.444Z,5.20
2022-08-23T20:36:28.351Z,5.03
2022-08-23T20:39:13.563Z,4.70
2022-08-23T20:41:58.789Z,4.70
2022-08-23T20:44:44.289Z,4.90
2022-08-23T20:47:29.712Z,4.63
2022-08-23T20:50:14.684Z,4.80
2022-08-23T20:52:59.818Z,4.38
2022-08-23T20:55:45.381Z,4.70
2022-08-23T20:58:30.933Z,4.22
2022-08-23T21:01:16.644Z,4.57
2022-08-23T21:04:02.291Z,4.80
2022-08-23T21:06:50.596Z,4.05
2022-08-23T21:09:36.659Z,3.88
2022-08-23T21:12:21.884Z,3.40
2022-08-23T21:15:10.931Z,3.47
2022-08-23T21:17:56.533Z,3.20
2022-08-23T21:20:41.826Z,3.50
2022-08-23T21:23:27.006Z,3.20
2022-08-23T21:26:12.310Z,3.25
2022-08-23T21:28:58.098Z,2.90
2022-08-23T21:31:43.217Z,3.70
2022-08-23T21:34:29.732Z,3.38
2022-08-23T21:37:15.100Z,3.33
2022-08-23T21:40:00.468Z,3.58
2022-08-23T21:42:47.067Z,3.70
2022-08-23T21:45:32.250Z,3.30
2022-08-23T21:48:19.738Z,3.65
2022-08-23T21:51:05.198Z,3.40
2022-08-23T21:53:50.789Z,3.70
2022-08-23T21:56:37.453Z,3.50
2022-08-23T21:59:22.483Z,3.42
2022-08-23T22:02:07.594Z,3.40
2022-08-23T22:04:53.351Z,3.20
2022-08-23T22:07:39.387Z,3.45
2022-08-23T22:10:25.415Z,3.53
2022-08-23T22:13:11.369Z,3.33
2022-08-23T22:15:56.838Z,3.70
2022-08-23T22:18:42.848Z,3.60
2022-08-23T22:21:28.106Z,3.65
2022-08-23T22:24:20.031Z,3.27
2022-08-23T22:27:07.585Z,3.40
2022-08-23T22:29:53.430Z,3.60
2022-08-23T22:32:38.638Z,3.08
2022-08-23T22:35:24.078Z,3.55
2022-08-23T22:38:14.195Z,3.10
2022-08-23T22:41:00.410Z,3.40
2022-08-23T22:43:45.733Z,3.65
2022-08-23T22:46:34.039Z,3.65
2022-08-23T22:49:19.397Z,3.42
2022-08-23T22:52:04.817Z,3.80
2022-08-23T22:54:50.297Z,3.72
2022-08-23T22:57:35.481Z,3.63
2022-08-23T23:00:23.450Z,3.50
2022-08-23T23:03:09.197Z,3.40
2022-08-23T23:05:55.730Z,3.20
2022-08-23T23:08:44.188Z,3.45
2022-08-23T23:11:29.441Z,3.50
2022-08-23T23:14:16.619Z,3.38
2022-08-23T23:17:01.561Z,3.60
2022-08-23T23:20:05.605Z,3.70
2022-08-23T23:22:51.772Z,3.25
2022-08-23T23:25:37.234Z,3.38
2022-08-23T23:28:22.736Z,3.40
2022-08-23T23:31:08.030Z,3.33
2022-08-23T23:33:53.431Z,3.50
2022-08-23T23:36:39.016Z,3.38
2022-08-23T23:39:24.511Z,3.45
2022-08-23T23:42:09.739Z,3.17
2022-08-23T23:44:55.192Z,3.55
2022-08-23T23:47:40.774Z,3.20
2022-08-23T23:50:27.046Z,3.20
2022-08-23T23:53:11.998Z,3.65
2022-08-23T23:56:01.228Z,2.95
2022-08-23T23:58:47.132Z,3.40
